createdAt,value
2019-01-10T00:01:07.311Z,28.30
2019-01-10T00:03:41.298Z,28.20
2019-01-10T00:06:14.167Z,28.87
2019-01-10T00:08:47.469Z,29.70
2019-01-10T00:11:20.759Z,29.53
2019-01-10T00:13:55.804Z,30.73
2019-01-10T00:16:28.990Z,31.20
2019-01-10T00:19:02.069Z,30.57
2019-01-10T00:21:39.989Z,32.27
2019-01-10T00:24:13.323Z,31.03
2019-01-10T00:26:46.549Z,33.23
2019-01-10T00:29:20.712Z,32.00
2019-01-10T00:31:53.848Z,33.23
2019-01-10T00:34:29.984Z,33.00
2019-01-10T00:37:02.524Z,33.13
2019-01-10T00:39:35.701Z,32.93
2019-01-10T00:42:08.651Z,34.60
2019-01-10T00:44:41.790Z,34.17
2019-01-10T00:47:14.955Z,35.33
2019-01-10T00:49:48.175Z,33.43
2019-01-10T00:52:21.274Z,34.80
2019-01-10T00:54:56.200Z,35.17
2019-01-10T00:57:30.255Z,34.00
2019-01-10T01:00:06.220Z,35.87
2019-01-10T01:02:39.359Z,34.40
2019-01-10T01:05:14.871Z,34.03
2019-01-10T01:07:48.896Z,32.67
2019-01-10T01:10:27.846Z,33.97
2019-01-10T01:13:00.975Z,32.30
2019-01-10T01:15:34.360Z,33.87
2019-01-10T01:18:07.562Z,33.60
2019-01-10T01:20:40.549Z,32.53
2019-01-10T01:23:13.731Z,32.17
2019-01-10T01:25:46.735Z,33.07
2019-01-10T01:28:19.873Z,33.90
2019-01-10T01:30:53.000Z,34.27
2019-01-10T01:33:26.177Z,33.40
2019-01-10T01:35:59.137Z,32.37
2019-01-10T01:38:32.405Z,31.57
2019-01-10T01:41:05.663Z,31.40
2019-01-10T01:43:39.953Z,31.70
2019-01-10T01:46:13.223Z,31.37
2019-01-10T01:48:46.306Z,32.10
2019-01-10T01:51:19.524Z,31.87
2019-01-10T01:53:54.144Z,31.17
2019-01-10T01:56:27.435Z,32.43
2019-01-10T01:59:00.617Z,31.47
2019-01-10T02:01:33.697Z,31.60
2019-01-10T02:04:26.157Z,31.20
2019-01-10T02:07:00.404Z,31.87
2019-01-10T02:09:33.502Z,31.00
2019-01-10T02:12:07.785Z,31.60
2019-01-10T02:14:40.865Z,31.73
2019-01-10T02:17:13.853Z,32.10
2019-01-10T02:19:47.070Z,30.77
2019-01-10T02:22:22.780Z,30.93
2019-01-10T02:24:55.975Z,32.33
2019-01-10T02:27:30.166Z,32.97
2019-01-10T02:30:05.442Z,31.07
2019-01-10T02:32:40.942Z,31.27
2019-01-10T02:35:15.659Z,32.33
2019-01-10T02:37:50.659Z,30.43
2019-01-10T02:40:24.692Z,31.90
2019-01-10T02:42:57.940Z,31.33
2019-01-10T02:45:30.874Z,31.60
2019-01-10T02:48:05.237Z,30.47
2019-01-10T02:50:38.356Z,31.73
2019-01-10T02:53:11.584Z,32.77
2019-01-10T02:55:51.426Z,32.77
2019-01-10T02:58:24.519Z,31.77
2019-01-10T03:00:57.451Z,31.03
2019-01-10T03:03:30.799Z,31.80
2019-01-10T03:06:08.803Z,32.07
2019-01-10T03:08:42.476Z,29.77
2019-01-10T03:11:15.593Z,30.40
2019-01-10T03:13:49.008Z,30.13
2019-01-10T03:16:23.586Z,30.23
2019-01-10T03:19:03.515Z,30.53
2019-01-10T03:21:40.429Z,30.83
2019-01-10T03:24:14.823Z,29.73
2019-01-10T03:26:47.928Z,30.33
2019-01-10T03:29:21.190Z,30.63
2019-01-10T03:31:54.315Z,30.63
2019-01-10T03:34:27.714Z,29.40
2019-01-10T03:37:01.555Z,28.53
2019-01-10T03:39:34.545Z,29.73
2019-01-10T03:42:12.508Z,28.50
2019-01-10T03:44:46.414Z,29.70
2019-01-10T03:47:24.871Z,29.70
2019-01-10T03:49:58.612Z,30.57
2019-01-10T03:52:32.563Z,32.40
2019-01-10T03:55:10.893Z,30.40
2019-01-10T03:57:44.081Z,29.37
2019-01-10T04:00:23.025Z,27.67
2019-01-10T04:02:57.296Z,30.30
2019-01-10T04:05:31.158Z,28.80
2019-01-10T04:08:06.248Z,29.43
2019-01-10T04:10:42.515Z,28.40
2019-01-10T04:13:16.073Z,28.60
2019-01-10T04:15:56.583Z,30.73
2019-01-10T04:18:30.849Z,29.73
2019-01-10T04:21:16.662Z,28.10
2019-01-10T04:23:42.273Z,30.93
2019-01-10T04:26:15.395Z,27.30
2019-01-10T04:28:48.646Z,27.50
2019-01-10T04:31:21.939Z,27.83
2019-01-10T04:33:56.596Z,29.50
2019-01-10T04:36:31.349Z,28.97
2019-01-10T04:39:05.579Z,30.50
2019-01-10T04:41:39.534Z,29.50
2019-01-10T04:44:13.702Z,29.33
2019-01-10T04:46:46.580Z,31.20
2019-01-10T04:49:19.816Z,31.07
2019-01-10T04:51:53.236Z,30.20
2019-01-10T04:54:28.364Z,31.07
2019-01-10T04:57:04.587Z,29.13
2019-01-10T04:59:37.364Z,28.23
2019-01-10T05:02:18.333Z,28.47
2019-01-10T05:04:44.873Z,30.20
2019-01-10T05:07:21.346Z,29.67
2019-01-10T05:09:54.583Z,35.83
2019-01-10T05:12:29.128Z,29.30
2019-01-10T05:15:02.166Z,29.60
2019-01-10T05:17:35.375Z,28.17
2019-01-10T05:20:16.606Z,28.77
2019-01-10T05:22:50.269Z,30.20
2019-01-10T05:25:24.292Z,31.73
2019-01-10T05:28:02.043Z,31.87
2019-01-10T05:30:36.607Z,33.63
2019-01-10T05:33:09.766Z,28.70
2019-01-10T05:35:43.024Z,30.97
2019-01-10T05:38:16.623Z,31.83
2019-01-10T05:40:49.621Z,30.30
2019-01-10T05:43:23.591Z,29.77
2019-01-10T05:45:58.580Z,29.70
2019-01-10T05:48:31.932Z,33.43
2019-01-10T05:51:05.204Z,30.60
2019-01-10T05:53:38.338Z,30.87
2019-01-10T05:56:15.612Z,27.97
2019-01-10T05:58:46.884Z,27.47
2019-01-10T06:01:20.290Z,28.27
2019-01-10T06:03:53.793Z,27.30
2019-01-10T06:06:26.991Z,26.77
2019-01-10T06:09:01.239Z,27.03
2019-01-10T06:11:34.757Z,26.37
2019-01-10T06:14:09.550Z,27.53
2019-01-10T06:16:50.250Z,29.53
2019-01-10T06:19:26.994Z,29.70
2019-01-10T06:21:57.823Z,29.10
2019-01-10T06:24:31.935Z,30.00
2019-01-10T06:27:05.116Z,28.50
2019-01-10T06:29:38.327Z,29.07
2019-01-10T06:32:11.401Z,29.13
2019-01-10T06:34:45.306Z,29.57
2019-01-10T06:37:18.837Z,28.03
2019-01-10T06:39:52.035Z,27.73
2019-01-10T06:42:25.358Z,26.53
2019-01-10T06:44:58.358Z,28.47
2019-01-10T06:47:31.447Z,27.27
2019-01-10T06:50:05.726Z,24.20
2019-01-10T06:52:39.141Z,28.43
2019-01-10T06:55:13.125Z,26.50
2019-01-10T06:57:49.427Z,28.90
2019-01-10T07:00:23.920Z,24.23
2019-01-10T07:02:56.928Z,24.23
2019-01-10T07:05:30.068Z,24.67
2019-01-10T07:08:03.288Z,23.67
2019-01-10T07:10:37.111Z,22.80
2019-01-10T07:13:10.226Z,25.00
2019-01-10T07:15:44.542Z,24.77
2019-01-10T07:18:17.683Z,23.53
2019-01-10T07:20:52.804Z,23.87
2019-01-10T07:23:26.908Z,23.60
2019-01-10T07:26:01.737Z,23.67
2019-01-10T07:28:38.053Z,23.43
2019-01-10T07:31:12.983Z,22.70
2019-01-10T07:33:46.712Z,22.40
2019-01-10T07:36:22.866Z,21.80
2019-01-10T07:38:58.159Z,21.13
2019-01-10T07:41:37.292Z,19.87
2019-01-10T07:44:13.327Z,19.20
2019-01-10T07:46:53.423Z,19.07
2019-01-10T07:49:32.293Z,18.83
2019-01-10T07:52:06.824Z,18.73
2019-01-10T07:54:42.560Z,19.67
2019-01-10T07:57:17.518Z,19.17
2019-01-10T07:59:51.537Z,19.20
2019-01-10T08:02:25.160Z,18.97
2019-01-10T08:05:00.043Z,19.87
2019-01-10T08:07:33.666Z,21.73
2019-01-10T08:10:11.076Z,21.80
2019-01-10T08:12:46.706Z,22.07
2019-01-10T08:15:22.411Z,20.57
2019-01-10T08:17:56.798Z,21.83
2019-01-10T08:20:31.864Z,21.00
2019-01-10T08:23:05.306Z,21.33
2019-01-10T08:25:38.920Z,21.90
2019-01-10T08:28:13.135Z,22.50
2019-01-10T08:30:48.253Z,21.17
2019-01-10T08:33:22.170Z,22.20
2019-01-10T08:35:55.804Z,22.57
2019-01-10T08:38:29.889Z,21.70
2019-01-10T08:41:03.621Z,22.63
2019-01-10T08:43:36.842Z,22.97
2019-01-10T08:46:10.499Z,25.10
2019-01-10T08:48:43.842Z,25.13
2019-01-10T08:51:17.125Z,24.70
2019-01-10T08:53:54.064Z,24.83
2019-01-10T08:56:24.988Z,23.57
2019-01-10T08:58:58.223Z,23.43
2019-01-10T09:01:32.638Z,23.23
2019-01-10T09:04:06.022Z,24.23
2019-01-10T09:06:39.148Z,23.07
2019-01-10T09:09:12.404Z,25.10
2019-01-10T09:11:45.663Z,23.70
2019-01-10T09:14:20.006Z,23.47
2019-01-10T09:16:58.775Z,23.77
2019-01-10T09:19:32.353Z,23.40
2019-01-10T09:22:06.345Z,23.63
2019-01-10T09:24:39.860Z,24.40
2019-01-10T09:27:14.763Z,24.07
2019-01-10T09:29:50.183Z,24.97
2019-01-10T09:32:24.396Z,24.37
2019-01-10T09:34:58.711Z,23.93
2019-01-10T09:37:34.309Z,25.33
2019-01-10T09:40:12.238Z,24.47
2019-01-10T09:42:49.340Z,25.57
2019-01-10T09:45:25.852Z,25.67
2019-01-10T09:48:00.173Z,26.47
2019-01-10T09:50:37.500Z,25.37
2019-01-10T09:53:11.980Z,27.10
2019-01-10T09:55:51.615Z,26.53
2019-01-10T09:58:26.585Z,28.27
2019-01-10T10:01:01.718Z,28.87
2019-01-10T10:03:38.493Z,29.50
2019-01-10T10:06:14.586Z,28.73
2019-01-10T10:08:49.747Z,29.53
2019-01-10T10:11:33.862Z,29.60
2019-01-10T10:14:01.429Z,29.73
2019-01-10T10:16:34.961Z,29.37
2019-01-10T10:19:10.967Z,29.67
2019-01-10T10:21:45.802Z,28.70
2019-01-10T10:24:21.473Z,31.17
2019-01-10T10:26:56.207Z,32.73
2019-01-10T10:29:31.003Z,31.67
2019-01-10T10:32:05.666Z,32.48
2019-01-10T10:34:39.622Z,32.83
2019-01-10T10:37:14.126Z,34.33
2019-01-10T10:39:50.738Z,34.23
2019-01-10T10:42:27.510Z,34.17
2019-01-10T10:45:03.205Z,34.80
2019-01-10T10:47:37.436Z,34.60
2019-01-10T10:50:14.210Z,34.92
2019-01-10T10:52:48.249Z,34.30
2019-01-10T10:55:22.447Z,34.37
2019-01-10T10:57:57.881Z,35.00
2019-01-10T11:00:33.319Z,34.37
2019-01-10T11:03:09.193Z,34.87
2019-01-10T11:05:43.159Z,36.43
2019-01-10T11:08:17.492Z,35.40
2019-01-10T11:10:53.188Z,34.67
2019-01-10T11:13:27.142Z,35.97
2019-01-10T11:16:10.098Z,34.93
2019-01-10T11:18:36.486Z,34.67
2019-01-10T11:21:10.831Z,34.47
2019-01-10T11:23:45.277Z,34.60
2019-01-10T11:26:20.622Z,34.47
2019-01-10T11:28:55.313Z,34.83
2019-01-10T11:31:32.409Z,34.40
2019-01-10T11:34:06.820Z,34.97
2019-01-10T11:36:41.084Z,34.17
2019-01-10T11:39:14.968Z,33.87
2019-01-10T11:41:50.202Z,33.93
2019-01-10T11:44:24.396Z,32.80
2019-01-10T11:46:58.145Z,33.40
2019-01-10T11:49:40.353Z,35.60
2019-01-10T11:52:14.603Z,34.63
2019-01-10T11:54:50.562Z,33.13
2019-01-10T11:57:25.374Z,36.07
2019-01-10T12:00:03.284Z,34.33
2019-01-10T12:02:36.858Z,35.48
2019-01-10T12:05:12.559Z,34.33
2019-01-10T12:08:01.058Z,35.70
2019-01-10T12:10:39.715Z,35.60
2019-01-10T12:13:17.535Z,33.70
2019-01-10T12:15:53.540Z,36.67
2019-01-10T12:18:31.228Z,36.00
2019-01-10T12:21:57.475Z,37.03
2019-01-10T12:24:33.829Z,35.10
2019-01-10T12:31:27.638Z,38.60
2019-01-10T12:33:03.678Z,39.17
2019-01-10T12:35:41.103Z,37.63
2019-01-10T12:38:17.352Z,38.13
2019-01-10T12:40:53.769Z,37.90
2019-01-10T12:43:47.897Z,38.87
2019-01-10T12:46:23.356Z,39.27
2019-01-10T12:48:58.030Z,38.13
2019-01-10T12:51:32.772Z,39.10
2019-01-10T12:54:10.031Z,38.70
2019-01-10T12:56:44.302Z,38.93
2019-01-10T12:59:21.041Z,40.03
2019-01-10T13:01:55.648Z,37.03
2019-01-10T13:04:30.503Z,38.47
2019-01-10T13:07:05.255Z,38.87
2019-01-10T13:09:40.025Z,39.83
2019-01-10T13:12:15.706Z,38.43
2019-01-10T13:14:52.156Z,39.17
2019-01-10T13:17:28.534Z,38.03
2019-01-10T13:20:04.943Z,39.33
2019-01-10T13:22:38.865Z,38.47
2019-01-10T13:25:20.810Z,38.03
2019-01-10T13:27:57.095Z,38.67
2019-01-10T13:30:30.232Z,39.00
2019-01-10T13:33:04.515Z,40.23
2019-01-10T13:35:38.412Z,39.25
2019-01-10T13:38:12.870Z,39.03
2019-01-10T13:40:48.770Z,37.38
2019-01-10T13:43:25.962Z,39.80
2019-01-10T13:46:00.325Z,46.28
2019-01-10T13:48:34.485Z,41.75
2019-01-10T13:51:08.725Z,39.53
2019-01-10T13:53:42.898Z,38.00
2019-01-10T13:56:18.769Z,38.75
2019-01-10T13:58:55.087Z,39.40
2019-01-10T14:01:29.293Z,37.13
2019-01-10T14:04:03.102Z,40.55
2019-01-10T14:06:38.095Z,39.37
2019-01-10T14:09:13.427Z,37.50
2019-01-10T14:11:47.672Z,38.53
2019-01-10T14:14:21.363Z,39.43
2019-01-10T14:17:01.453Z,37.38
2019-01-10T14:19:33.109Z,39.33
2019-01-10T14:22:07.429Z,38.60
2019-01-10T14:24:41.264Z,36.30
2019-01-10T14:27:18.457Z,38.38
2019-01-10T14:29:52.489Z,38.63
2019-01-10T14:32:27.523Z,39.27
2019-01-10T14:35:01.870Z,37.97
2019-01-10T14:37:36.298Z,38.60
2019-01-10T14:40:12.379Z,39.18
2019-01-10T14:42:46.428Z,39.97
2019-01-10T14:45:23.936Z,39.50
2019-01-10T14:48:01.833Z,40.03
2019-01-10T14:50:42.497Z,39.63
2019-01-10T14:53:18.159Z,41.15
2019-01-10T14:55:52.168Z,39.00
2019-01-10T14:58:26.435Z,41.30
2019-01-10T15:01:02.027Z,41.13
2019-01-10T15:03:35.834Z,40.80
2019-01-10T15:06:09.740Z,40.70
2019-01-10T15:08:43.528Z,42.13
2019-01-10T15:11:19.755Z,40.63
2019-01-10T15:13:52.878Z,41.77
2019-01-10T15:16:26.472Z,41.10
2019-01-10T15:18:59.832Z,41.93
2019-01-10T15:21:33.077Z,42.93
2019-01-10T15:24:09.731Z,41.63
2019-01-10T15:26:43.319Z,41.40
2019-01-10T15:29:16.570Z,44.40
2019-01-10T15:31:49.683Z,46.37
2019-01-10T15:34:22.905Z,45.00
2019-01-10T15:36:56.203Z,44.50
2019-01-10T15:39:30.414Z,44.97
2019-01-10T15:42:03.746Z,48.40
2019-01-10T15:44:36.939Z,47.27
2019-01-10T15:47:10.451Z,47.97
2019-01-10T15:49:43.399Z,48.63
2019-01-10T15:52:16.479Z,50.33
2019-01-10T15:54:49.427Z,50.63
2019-01-10T15:57:22.448Z,50.30
2019-01-10T15:59:56.467Z,53.57
2019-01-10T16:02:29.569Z,51.42
2019-01-10T16:05:04.179Z,51.90
2019-01-10T16:07:36.954Z,56.80
2019-01-10T16:10:13.173Z,58.55
2019-01-10T16:12:46.304Z,57.20
2019-01-10T16:15:21.784Z,61.57
2019-01-10T16:17:55.534Z,63.33
2019-01-10T16:20:28.498Z,63.93
2019-01-10T16:23:01.665Z,69.00
2019-01-10T16:25:34.914Z,68.40
2019-01-10T16:28:08.236Z,71.33
2019-01-10T16:30:41.211Z,71.60
2019-01-10T16:33:14.640Z,67.07
2019-01-10T16:35:47.805Z,68.17
2019-01-10T16:38:20.991Z,70.40
2019-01-10T16:40:53.806Z,71.07
2019-01-10T16:43:26.847Z,69.30
2019-01-10T16:46:03.057Z,67.77
2019-01-10T16:48:36.361Z,69.57
2019-01-10T16:51:09.580Z,65.03
2019-01-10T16:53:42.730Z,67.58
2019-01-10T16:56:16.256Z,64.73
2019-01-10T16:58:49.424Z,67.90
2019-01-10T17:01:23.596Z,67.10
2019-01-10T17:03:56.430Z,68.07
2019-01-10T17:06:29.459Z,63.53
2019-01-10T17:09:02.507Z,63.50
2019-01-10T17:11:35.586Z,65.57
2019-01-10T17:14:09.856Z,65.23
2019-01-10T17:16:42.843Z,66.30
2019-01-10T17:19:16.186Z,64.03
2019-01-10T17:21:49.532Z,66.03
2019-01-10T17:24:22.695Z,64.37
2019-01-10T17:26:56.611Z,65.40
2019-01-10T17:29:31.858Z,67.07
2019-01-10T17:32:05.332Z,65.70
2019-01-10T17:34:39.530Z,64.37
2019-01-10T17:37:12.699Z,65.23
2019-01-10T17:39:53.182Z,68.07
2019-01-10T17:42:26.100Z,63.87
2019-01-10T17:44:58.830Z,62.97
2019-01-10T17:47:32.904Z,63.00
2019-01-10T17:50:08.615Z,62.63
2019-01-10T17:52:41.545Z,62.03
2019-01-10T17:55:15.235Z,59.10
2019-01-10T17:58:10.702Z,59.30
2019-01-10T18:00:44.135Z,60.23
2019-01-10T18:03:17.163Z,61.70
2019-01-10T18:05:50.379Z,61.40
2019-01-10T18:08:24.988Z,60.50
2019-01-10T18:10:58.454Z,61.27
2019-01-10T18:13:31.388Z,61.13
2019-01-10T18:16:04.524Z,59.87
2019-01-10T18:18:56.982Z,60.70
2019-01-10T18:21:31.254Z,59.73
2019-01-10T18:24:04.830Z,60.80
2019-01-10T18:26:39.274Z,57.90
2019-01-10T18:29:12.404Z,59.67
2019-01-10T18:31:52.901Z,58.17
2019-01-10T18:34:26.091Z,57.90
2019-01-10T18:36:59.311Z,58.23
2019-01-10T18:39:32.527Z,60.03
2019-01-10T18:42:05.832Z,57.40
2019-01-10T18:44:39.149Z,57.70
2019-01-10T18:47:13.202Z,58.08
2019-01-10T18:49:46.030Z,56.58
2019-01-10T18:52:19.251Z,58.00
2019-01-10T18:54:59.992Z,53.40
2019-01-10T18:57:29.312Z,55.07
2019-01-10T19:00:23.176Z,56.40
2019-01-10T19:02:56.564Z,54.07
2019-01-10T19:05:29.700Z,55.77
2019-01-10T19:08:02.870Z,54.47
2019-01-10T19:10:35.980Z,55.83
2019-01-10T19:13:08.970Z,54.90
2019-01-10T19:15:50.094Z,53.50
2019-01-10T19:18:23.286Z,57.80
2019-01-10T19:20:56.330Z,56.20
2019-01-10T19:23:30.568Z,53.53
2019-01-10T19:26:05.156Z,52.78
2019-01-10T19:28:38.210Z,53.80
2019-01-10T19:31:11.433Z,49.93
2019-01-10T19:33:44.704Z,55.03
2019-01-10T19:36:17.898Z,53.83
2019-01-10T19:38:51.269Z,52.40
2019-01-10T19:41:25.421Z,51.47
2019-01-10T19:43:58.531Z,54.00
2019-01-10T19:46:31.468Z,52.27
2019-01-10T19:49:04.397Z,53.00
2019-01-10T19:51:37.538Z,51.43
2019-01-10T19:54:10.695Z,54.40
2019-01-10T19:56:43.930Z,51.88
2019-01-10T19:59:16.995Z,53.17
2019-01-10T20:01:50.391Z,51.50
2019-01-10T20:04:23.527Z,52.67
2019-01-10T20:06:57.017Z,52.60
2019-01-10T20:09:30.183Z,51.90
2019-01-10T20:12:07.410Z,51.28
2019-01-10T20:14:41.467Z,52.53
2019-01-10T20:17:14.500Z,52.63
2019-01-10T20:19:48.979Z,50.57
2019-01-10T20:22:50.203Z,51.87
2019-01-10T20:25:23.452Z,47.67
2019-01-10T20:27:57.332Z,48.47
2019-01-10T20:30:30.696Z,50.97
2019-01-10T20:33:04.489Z,50.30
2019-01-10T20:35:37.268Z,50.57
2019-01-10T20:38:11.458Z,49.40
2019-01-10T20:40:44.656Z,49.50
2019-01-10T20:43:18.577Z,49.73
2019-01-10T20:45:59.404Z,50.30
2019-01-10T20:48:33.784Z,47.33
2019-01-10T20:51:07.191Z,48.67
2019-01-10T20:53:40.423Z,49.33
2019-01-10T20:56:29.108Z,49.65
2019-01-10T20:59:02.140Z,48.90
2019-01-10T21:01:35.201Z,46.90
2019-01-10T21:04:08.932Z,49.37
2019-01-10T21:06:44.388Z,49.80
2019-01-10T21:09:17.737Z,48.17
2019-01-10T21:11:50.852Z,48.40
2019-01-10T21:14:24.079Z,50.00
2019-01-10T21:16:57.158Z,48.87
2019-01-10T21:19:30.520Z,47.87
2019-01-10T21:22:03.614Z,48.97
2019-01-10T21:24:36.498Z,51.10
2019-01-10T21:27:09.571Z,47.00
2019-01-10T21:29:50.884Z,48.37
2019-01-10T21:32:25.163Z,48.13
2019-01-10T21:34:58.205Z,47.70
2019-01-10T21:37:31.368Z,48.23
2019-01-10T21:40:06.516Z,47.93
2019-01-10T21:42:39.614Z,49.65
2019-01-10T21:45:17.577Z,49.07
2019-01-10T21:47:53.858Z,49.45
2019-01-10T21:50:28.190Z,49.35
2019-01-10T21:53:02.162Z,47.00
2019-01-10T21:55:35.464Z,47.03
2019-01-10T21:58:16.774Z,49.13
2019-01-10T22:00:50.359Z,49.53
2019-01-10T22:03:23.340Z,49.47
2019-01-10T22:09:27.892Z,48.40
2019-01-10T22:12:02.321Z,50.00
2019-01-10T22:14:35.121Z,47.95
2019-01-10T22:17:08.855Z,49.40
2019-01-10T22:19:43.901Z,48.13
2019-01-10T22:22:17.149Z,48.43
2019-01-10T22:25:15.740Z,46.67
2019-01-10T22:27:51.529Z,46.03
2019-01-10T22:30:25.527Z,48.60
2019-01-10T22:33:02.668Z,49.47
2019-01-10T22:35:38.019Z,47.87
2019-01-10T22:38:10.576Z,48.33
2019-01-10T22:40:44.962Z,48.40
2019-01-10T22:43:18.088Z,49.43
2019-01-10T22:45:51.263Z,47.63
2019-01-10T22:48:24.148Z,48.10
2019-01-10T22:50:56.952Z,48.77
2019-01-10T22:53:29.764Z,48.17
2019-01-10T22:56:02.649Z,47.43
2019-01-10T22:58:52.323Z,48.70
2019-01-10T23:01:27.246Z,47.70
2019-01-10T23:04:00.495Z,48.17
2019-01-10T23:06:33.269Z,48.07
2019-01-10T23:09:07.839Z,47.33
2019-01-10T23:11:43.571Z,45.87
2019-01-10T23:14:17.325Z,46.97
2019-01-10T23:16:50.246Z,48.60
2019-01-10T23:19:24.439Z,47.47
2019-01-10T23:21:58.579Z,46.48
2019-01-10T23:24:31.544Z,46.90
2019-01-10T23:27:04.724Z,47.53
2019-01-10T23:29:37.811Z,46.33
2019-01-10T23:32:35.817Z,46.03
2019-01-10T23:35:10.491Z,45.63
2019-01-10T23:37:44.680Z,46.30
2019-01-10T23:40:18.532Z,45.43
2019-01-10T23:43:16.678Z,46.30
2019-01-10T23:45:49.704Z,46.68
2019-01-10T23:48:23.573Z,46.95
2019-01-10T23:50:56.858Z,46.07
2019-01-10T23:53:29.819Z,47.33
2019-01-10T23:56:02.444Z,46.70
2019-01-10T23:58:35.144Z,49.63
